sensor_id;sensor_type;location;lat;lon;timestamp;P1;durP1;ratioP1;P2;durP2;ratioP2
3249;SDS011;1637;42.020;23.992;2022-12-28T00:01:32;50.77;;;24.27;;
3249;SDS011;1637;42.020;23.992;2022-12-28T00:04:02;71.20;;;33.97;;
3249;SDS011;1637;42.020;23.992;2022-12-28T00:06:31;75.50;;;36.00;;
3249;SDS011;1637;42.020;23.992;2022-12-28T00:08:58;64.43;;;32.70;;
3249;SDS011;1637;42.020;23.992;2022-12-28T00:11:26;76.27;;;33.30;;
3249;SDS011;1637;42.020;23.992;2022-12-28T00:13:54;96.43;;;39.27;;
3249;SDS011;1637;42.020;23.992;2022-12-28T00:16:23;108.03;;;44.00;;
3249;SDS011;1637;42.020;23.992;2022-12-28T00:18:52;115.00;;;44.53;;
3249;SDS011;1637;42.020;23.992;2022-12-28T00:21:20;75.70;;;31.80;;
3249;SDS011;1637;42.020;23.992;2022-12-28T00:23:48;76.90;;;32.20;;
3249;SDS011;1637;42.020;23.992;2022-12-28T00:26:16;89.90;;;32.83;;
3249;SDS011;1637;42.020;23.992;2022-12-28T00:28:43;86.37;;;38.13;;
3249;SDS011;1637;42.020;23.992;2022-12-28T00:31:10;94.37;;;39.00;;
3249;SDS011;1637;42.020;23.992;2022-12-28T00:33:37;69.83;;;33.27;;
3249;SDS011;1637;42.020;23.992;2022-12-28T00:36:04;87.73;;;37.40;;
3249;SDS011;1637;42.020;23.992;2022-12-28T00:38:33;88.80;;;35.77;;
3249;SDS011;1637;42.020;23.992;2022-12-28T00:41:01;103.10;;;43.43;;
3249;SDS011;1637;42.020;23.992;2022-12-28T00:43:28;91.13;;;37.27;;
3249;SDS011;1637;42.020;23.992;2022-12-28T00:45:55;117.73;;;43.47;;
3249;SDS011;1637;42.020;23.992;2022-12-28T00:48:22;133.13;;;50.33;;
3249;SDS011;1637;42.020;23.992;2022-12-28T00:50:49;116.60;;;43.83;;
3249;SDS011;1637;42.020;23.992;2022-12-28T00:53:16;127.80;;;46.60;;
3249;SDS011;1637;42.020;23.992;2022-12-28T00:55:45;112.07;;;45.37;;
3249;SDS011;1637;42.020;23.992;2022-12-28T00:58:12;103.17;;;38.80;;
3249;SDS011;1637;42.020;23.992;2022-12-28T01:00:39;105.77;;;41.77;;
3249;SDS011;1637;42.020;23.992;2022-12-28T01:03:06;102.10;;;40.23;;
3249;SDS011;1637;42.020;23.992;2022-12-28T01:05:32;85.40;;;36.23;;
3249;SDS011;1637;42.020;23.992;2022-12-28T01:07:59;107.23;;;42.67;;
3249;SDS011;1637;42.020;23.992;2022-12-28T01:10:26;84.37;;;36.00;;
3249;SDS011;1637;42.020;23.992;2022-12-28T01:12:54;93.40;;;39.23;;
3249;SDS011;1637;42.020;23.992;2022-12-28T01:15:21;90.83;;;38.30;;
3249;SDS011;1637;42.020;23.992;2022-12-28T01:17:48;103.27;;;36.30;;
3249;SDS011;1637;42.020;23.992;2022-12-28T01:20:14;114.57;;;38.77;;
3249;SDS011;1637;42.020;23.992;2022-12-28T01:22:41;58.70;;;20.13;;
3249;SDS011;1637;42.020;23.992;2022-12-28T01:25:08;53.83;;;24.17;;
3249;SDS011;1637;42.020;23.992;2022-12-28T01:27:35;53.53;;;27.20;;
3249;SDS011;1637;42.020;23.992;2022-12-28T01:30:03;48.80;;;23.67;;
3249;SDS011;1637;42.020;23.992;2022-12-28T01:32:31;50.03;;;19.70;;
3249;SDS011;1637;42.020;23.992;2022-12-28T01:34:57;44.93;;;21.40;;
3249;SDS011;1637;42.020;23.992;2022-12-28T01:37:24;48.27;;;22.70;;
3249;SDS011;1637;42.020;23.992;2022-12-28T01:39:51;53.90;;;24.00;;
3249;SDS011;1637;42.020;23.992;2022-12-28T01:42:18;57.87;;;24.90;;
3249;SDS011;1637;42.020;23.992;2022-12-28T01:44:45;58.63;;;25.13;;
3249;SDS011;1637;42.020;23.992;2022-12-28T01:47:15;52.17;;;21.17;;
3249;SDS011;1637;42.020;23.992;2022-12-28T01:49:46;41.10;;;21.37;;
3249;SDS011;1637;42.020;23.992;2022-12-28T01:52:20;75.90;;;33.70;;
3249;SDS011;1637;42.020;23.992;2022-12-28T01:54:52;64.90;;;26.80;;
3249;SDS011;1637;42.020;23.992;2022-12-28T01:57:24;53.43;;;23.33;;
3249;SDS011;1637;42.020;23.992;2022-12-28T01:59:55;64.40;;;26.20;;
3249;SDS011;1637;42.020;23.992;2022-12-28T02:02:27;70.07;;;27.43;;
3249;SDS011;1637;42.020;23.992;2022-12-28T02:04:55;60.07;;;27.70;;
3249;SDS011;1637;42.020;23.992;2022-12-28T02:07:25;71.60;;;31.60;;
3249;SDS011;1637;42.020;23.992;2022-12-28T02:10:02;68.13;;;30.20;;
3249;SDS011;1637;42.020;23.992;2022-12-28T02:12:30;61.47;;;29.00;;
3249;SDS011;1637;42.020;23.992;2022-12-28T02:14:58;66.73;;;29.63;;
3249;SDS011;1637;42.020;23.992;2022-12-28T02:17:25;76.00;;;33.70;;
3249;SDS011;1637;42.020;23.992;2022-12-28T02:19:53;79.80;;;34.80;;
3249;SDS011;1637;42.020;23.992;2022-12-28T02:22:35;86.87;;;33.90;;
3249;SDS011;1637;42.020;23.992;2022-12-28T02:28:16;74.67;;;33.00;;
3249;SDS011;1637;42.020;23.992;2022-12-28T02:31:06;68.90;;;31.67;;
3249;SDS011;1637;42.020;23.992;2022-12-28T02:33:39;63.63;;;30.50;;
3249;SDS011;1637;42.020;23.992;2022-12-28T02:36:12;61.43;;;29.73;;
3249;SDS011;1637;42.020;23.992;2022-12-28T02:38:45;59.20;;;30.00;;
3249;SDS011;1637;42.020;23.992;2022-12-28T02:41:17;59.00;;;30.87;;
3249;SDS011;1637;42.020;23.992;2022-12-28T02:43:48;58.83;;;29.57;;
3249;SDS011;1637;42.020;23.992;2022-12-28T02:46:15;56.90;;;28.27;;
3249;SDS011;1637;42.020;23.992;2022-12-28T02:49:09;75.10;;;31.67;;
3249;SDS011;1637;42.020;23.992;2022-12-28T02:52:02;71.27;;;31.37;;
3249;SDS011;1637;42.020;23.992;2022-12-28T02:54:56;71.53;;;32.30;;
3249;SDS011;1637;42.020;23.992;2022-12-28T02:58:03;75.67;;;32.23;;
3249;SDS011;1637;42.020;23.992;2022-12-28T03:00:50;58.30;;;28.13;;
3249;SDS011;1637;42.020;23.992;2022-12-28T03:03:29;61.77;;;28.63;;
3249;SDS011;1637;42.020;23.992;2022-12-28T03:06:03;65.77;;;28.50;;
3249;SDS011;1637;42.020;23.992;2022-12-28T03:08:58;59.73;;;27.70;;
3249;SDS011;1637;42.020;23.992;2022-12-28T03:11:31;60.00;;;27.07;;
3249;SDS011;1637;42.020;23.992;2022-12-28T03:14:04;65.97;;;28.50;;
3249;SDS011;1637;42.020;23.992;2022-12-28T03:16:39;62.67;;;27.03;;
3249;SDS011;1637;42.020;23.992;2022-12-28T03:19:29;59.80;;;26.00;;
3249;SDS011;1637;42.020;23.992;2022-12-28T03:22:15;74.17;;;31.40;;
3249;SDS011;1637;42.020;23.992;2022-12-28T03:25:03;79.40;;;34.93;;
3249;SDS011;1637;42.020;23.992;2022-12-28T03:27:51;86.20;;;32.83;;
3249;SDS011;1637;42.020;23.992;2022-12-28T03:30:36;69.10;;;28.43;;
3249;SDS011;1637;42.020;23.992;2022-12-28T03:33:25;62.70;;;27.90;;
3249;SDS011;1637;42.020;23.992;2022-12-28T03:35:54;62.77;;;25.60;;
3249;SDS011;1637;42.020;23.992;2022-12-28T03:38:30;55.17;;;23.70;;
3249;SDS011;1637;42.020;23.992;2022-12-28T03:41:05;62.87;;;30.63;;
3249;SDS011;1637;42.020;23.992;2022-12-28T03:43:34;62.40;;;35.73;;
3249;SDS011;1637;42.020;23.992;2022-12-28T03:46:06;37.27;;;20.10;;
3249;SDS011;1637;42.020;23.992;2022-12-28T03:48:40;39.57;;;19.77;;
3249;SDS011;1637;42.020;23.992;2022-12-28T03:51:09;39.27;;;19.77;;
3249;SDS011;1637;42.020;23.992;2022-12-28T03:53:38;30.97;;;16.13;;
3249;SDS011;1637;42.020;23.992;2022-12-28T03:56:08;26.57;;;13.87;;
3249;SDS011;1637;42.020;23.992;2022-12-28T03:58:36;32.47;;;18.20;;
3249;SDS011;1637;42.020;23.992;2022-12-28T04:01:03;41.73;;;20.17;;
3249;SDS011;1637;42.020;23.992;2022-12-28T04:03:30;44.97;;;24.40;;
3249;SDS011;1637;42.020;23.992;2022-12-28T04:05:59;56.90;;;25.50;;
3249;SDS011;1637;42.020;23.992;2022-12-28T04:08:26;52.57;;;23.00;;
3249;SDS011;1637;42.020;23.992;2022-12-28T04:10:53;48.23;;;23.17;;
3249;SDS011;1637;42.020;23.992;2022-12-28T04:13:20;47.63;;;23.30;;
3249;SDS011;1637;42.020;23.992;2022-12-28T04:15:57;50.30;;;25.57;;
3249;SDS011;1637;42.020;23.992;2022-12-28T04:18:24;59.57;;;27.10;;
3249;SDS011;1637;42.020;23.992;2022-12-28T04:20:51;54.50;;;28.57;;
3249;SDS011;1637;42.020;23.992;2022-12-28T04:23:20;57.13;;;27.70;;
3249;SDS011;1637;42.020;23.992;2022-12-28T04:25:57;57.73;;;26.67;;
3249;SDS011;1637;42.020;23.992;2022-12-28T04:28:25;59.77;;;28.77;;
3249;SDS011;1637;42.020;23.992;2022-12-28T04:30:53;47.03;;;24.67;;
3249;SDS011;1637;42.020;23.992;2022-12-28T04:33:22;50.90;;;25.13;;
3249;SDS011;1637;42.020;23.992;2022-12-28T04:35:49;60.30;;;27.07;;
3249;SDS011;1637;42.020;23.992;2022-12-28T04:38:17;64.23;;;29.37;;
3249;SDS011;1637;42.020;23.992;2022-12-28T04:40:45;55.63;;;26.47;;
3249;SDS011;1637;42.020;23.992;2022-12-28T04:43:12;61.73;;;27.00;;
3249;SDS011;1637;42.020;23.992;2022-12-28T04:45:39;62.33;;;31.20;;
3249;SDS011;1637;42.020;23.992;2022-12-28T04:48:06;68.87;;;31.50;;
3249;SDS011;1637;42.020;23.992;2022-12-28T04:50:33;61.20;;;29.60;;
3249;SDS011;1637;42.020;23.992;2022-12-28T04:53:01;59.33;;;29.77;;
3249;SDS011;1637;42.020;23.992;2022-12-28T04:55:28;61.90;;;29.23;;
3249;SDS011;1637;42.020;23.992;2022-12-28T04:57:56;70.37;;;29.33;;
3249;SDS011;1637;42.020;23.992;2022-12-28T05:00:23;69.97;;;31.07;;
3249;SDS011;1637;42.020;23.992;2022-12-28T05:02:50;62.27;;;29.33;;
3249;SDS011;1637;42.020;23.992;2022-12-28T05:05:16;66.63;;;28.00;;
3249;SDS011;1637;42.020;23.992;2022-12-28T05:07:43;73.53;;;32.73;;
3249;SDS011;1637;42.020;23.992;2022-12-28T05:10:10;57.70;;;26.20;;
3249;SDS011;1637;42.020;23.992;2022-12-28T05:12:37;67.47;;;32.07;;
3249;SDS011;1637;42.020;23.992;2022-12-28T05:15:05;76.23;;;33.30;;
3249;SDS011;1637;42.020;23.992;2022-12-28T05:17:33;66.00;;;32.00;;
3249;SDS011;1637;42.020;23.992;2022-12-28T05:19:59;68.10;;;30.23;;
3249;SDS011;1637;42.020;23.992;2022-12-28T05:22:26;63.90;;;30.30;;
3249;SDS011;1637;42.020;23.992;2022-12-28T05:24:55;79.53;;;38.73;;
3249;SDS011;1637;42.020;23.992;2022-12-28T05:27:22;77.67;;;34.97;;
3249;SDS011;1637;42.020;23.992;2022-12-28T05:29:48;84.77;;;33.50;;
3249;SDS011;1637;42.020;23.992;2022-12-28T05:32:17;77.33;;;29.20;;
3249;SDS011;1637;42.020;23.992;2022-12-28T05:34:43;62.87;;;29.87;;
3249;SDS011;1637;42.020;23.992;2022-12-28T05:37:10;83.13;;;37.57;;
3249;SDS011;1637;42.020;23.992;2022-12-28T05:39:37;55.67;;;28.00;;
3249;SDS011;1637;42.020;23.992;2022-12-28T05:42:04;50.53;;;21.53;;
3249;SDS011;1637;42.020;23.992;2022-12-28T05:44:31;46.10;;;25.23;;
3249;SDS011;1637;42.020;23.992;2022-12-28T05:46:58;40.87;;;22.20;;
3249;SDS011;1637;42.020;23.992;2022-12-28T05:49:26;48.43;;;24.87;;
3249;SDS011;1637;42.020;23.992;2022-12-28T05:51:52;67.47;;;31.70;;
3249;SDS011;1637;42.020;23.992;2022-12-28T05:54:19;49.47;;;25.07;;
3249;SDS011;1637;42.020;23.992;2022-12-28T05:56:48;60.97;;;31.00;;
3249;SDS011;1637;42.020;23.992;2022-12-28T05:59:15;100.03;;;40.53;;
3249;SDS011;1637;42.020;23.992;2022-12-28T06:01:43;123.53;;;45.00;;
3249;SDS011;1637;42.020;23.992;2022-12-28T06:04:12;120.87;;;54.77;;
3249;SDS011;1637;42.020;23.992;2022-12-28T06:06:42;128.93;;;56.83;;
3249;SDS011;1637;42.020;23.992;2022-12-28T06:09:09;110.70;;;44.70;;
3249;SDS011;1637;42.020;23.992;2022-12-28T06:11:37;93.03;;;48.73;;
3249;SDS011;1637;42.020;23.992;2022-12-28T06:14:04;109.40;;;49.20;;
3249;SDS011;1637;42.020;23.992;2022-12-28T06:16:31;81.10;;;39.20;;
3249;SDS011;1637;42.020;23.992;2022-12-28T06:19:02;86.93;;;43.83;;
3249;SDS011;1637;42.020;23.992;2022-12-28T06:21:31;98.97;;;50.93;;
3249;SDS011;1637;42.020;23.992;2022-12-28T06:24:00;135.27;;;61.17;;
3249;SDS011;1637;42.020;23.992;2022-12-28T06:26:28;102.53;;;50.43;;
3249;SDS011;1637;42.020;23.992;2022-12-28T06:28:56;106.50;;;53.40;;
3249;SDS011;1637;42.020;23.992;2022-12-28T06:31:24;107.57;;;50.20;;
3249;SDS011;1637;42.020;23.992;2022-12-28T06:33:53;78.07;;;37.03;;
3249;SDS011;1637;42.020;23.992;2022-12-28T06:36:23;461.80;;;159.30;;
3249;SDS011;1637;42.020;23.992;2022-12-28T06:38:52;319.53;;;110.50;;
3249;SDS011;1637;42.020;23.992;2022-12-28T06:41:21;228.47;;;84.67;;
3249;SDS011;1637;42.020;23.992;2022-12-28T06:43:48;217.80;;;89.63;;
3249;SDS011;1637;42.020;23.992;2022-12-28T06:46:17;207.90;;;87.00;;
3249;SDS011;1637;42.020;23.992;2022-12-28T06:48:45;260.10;;;87.00;;
3249;SDS011;1637;42.020;23.992;2022-12-28T06:51:13;178.10;;;64.57;;
3249;SDS011;1637;42.020;23.992;2022-12-28T06:53:40;162.50;;;67.27;;
3249;SDS011;1637;42.020;23.992;2022-12-28T06:56:09;158.07;;;67.30;;
3249;SDS011;1637;42.020;23.992;2022-12-28T06:58:38;168.80;;;69.17;;
3249;SDS011;1637;42.020;23.992;2022-12-28T07:01:06;165.10;;;68.73;;
3249;SDS011;1637;42.020;23.992;2022-12-28T07:03:34;165.63;;;72.63;;
3249;SDS011;1637;42.020;23.992;2022-12-28T07:06:01;194.73;;;84.57;;
3249;SDS011;1637;42.020;23.992;2022-12-28T07:08:28;164.63;;;73.70;;
3249;SDS011;1637;42.020;23.992;2022-12-28T07:11:00;166.83;;;70.87;;
3249;SDS011;1637;42.020;23.992;2022-12-28T07:13:28;186.00;;;79.73;;
3249;SDS011;1637;42.020;23.992;2022-12-28T07:15:56;265.20;;;118.07;;
3249;SDS011;1637;42.020;23.992;2022-12-28T07:18:27;259.47;;;109.67;;
3249;SDS011;1637;42.020;23.992;2022-12-28T07:20:57;167.37;;;67.43;;
3249;SDS011;1637;42.020;23.992;2022-12-28T07:23:24;151.67;;;69.20;;
3249;SDS011;1637;42.020;23.992;2022-12-28T07:25:54;148.77;;;66.57;;
3249;SDS011;1637;42.020;23.992;2022-12-28T07:28:22;130.17;;;60.20;;
3249;SDS011;1637;42.020;23.992;2022-12-28T07:30:49;138.77;;;65.57;;
3249;SDS011;1637;42.020;23.992;2022-12-28T07:33:17;168.90;;;71.47;;
3249;SDS011;1637;42.020;23.992;2022-12-28T07:35:44;152.57;;;64.07;;
3249;SDS011;1637;42.020;23.992;2022-12-28T07:38:11;180.70;;;89.07;;
3249;SDS011;1637;42.020;23.992;2022-12-28T07:40:37;150.60;;;67.50;;
3249;SDS011;1637;42.020;23.992;2022-12-28T07:43:04;151.57;;;68.30;;
3249;SDS011;1637;42.020;23.992;2022-12-28T07:45:31;113.90;;;54.10;;
3249;SDS011;1637;42.020;23.992;2022-12-28T07:47:58;124.70;;;63.27;;
3249;SDS011;1637;42.020;23.992;2022-12-28T07:50:26;162.20;;;78.90;;
3249;SDS011;1637;42.020;23.992;2022-12-28T07:52:53;104.60;;;51.13;;
3249;SDS011;1637;42.020;23.992;2022-12-28T07:55:20;72.60;;;37.50;;
3249;SDS011;1637;42.020;23.992;2022-12-28T07:57:49;72.47;;;37.50;;
3249;SDS011;1637;42.020;23.992;2022-12-28T08:00:16;81.93;;;39.23;;
3249;SDS011;1637;42.020;23.992;2022-12-28T08:02:43;72.50;;;37.37;;
3249;SDS011;1637;42.020;23.992;2022-12-28T08:05:10;83.00;;;43.30;;
3249;SDS011;1637;42.020;23.992;2022-12-28T08:07:38;74.80;;;41.00;;
3249;SDS011;1637;42.020;23.992;2022-12-28T08:10:05;71.10;;;38.47;;
3249;SDS011;1637;42.020;23.992;2022-12-28T08:12:33;85.90;;;40.63;;
3249;SDS011;1637;42.020;23.992;2022-12-28T08:15:00;65.80;;;31.40;;
3249;SDS011;1637;42.020;23.992;2022-12-28T08:17:26;54.57;;;30.23;;
3249;SDS011;1637;42.020;23.992;2022-12-28T08:19:53;54.00;;;25.60;;
3249;SDS011;1637;42.020;23.992;2022-12-28T08:22:22;85.10;;;35.70;;
3249;SDS011;1637;42.020;23.992;2022-12-28T08:24:50;85.77;;;42.40;;
3249;SDS011;1637;42.020;23.992;2022-12-28T08:27:17;119.57;;;53.33;;
3249;SDS011;1637;42.020;23.992;2022-12-28T08:29:44;127.60;;;56.83;;
3249;SDS011;1637;42.020;23.992;2022-12-28T08:32:10;122.87;;;55.27;;
3249;SDS011;1637;42.020;23.992;2022-12-28T08:34:37;129.60;;;56.03;;
3249;SDS011;1637;42.020;23.992;2022-12-28T08:37:04;161.77;;;65.97;;
3249;SDS011;1637;42.020;23.992;2022-12-28T08:39:31;131.93;;;56.43;;
3249;SDS011;1637;42.020;23.992;2022-12-28T08:41:59;135.30;;;65.20;;
3249;SDS011;1637;42.020;23.992;2022-12-28T08:44:25;197.00;;;79.90;;
3249;SDS011;1637;42.020;23.992;2022-12-28T08:46:53;125.00;;;55.20;;
3249;SDS011;1637;42.020;23.992;2022-12-28T08:49:20;97.70;;;46.77;;
3249;SDS011;1637;42.020;23.992;2022-12-28T08:51:47;120.40;;;55.37;;
3249;SDS011;1637;42.020;23.992;2022-12-28T08:54:14;106.17;;;51.27;;
3249;SDS011;1637;42.020;23.992;2022-12-28T08:56:41;96.70;;;50.20;;
3249;SDS011;1637;42.020;23.992;2022-12-28T08:59:12;100.33;;;47.40;;
3249;SDS011;1637;42.020;23.992;2022-12-28T09:01:40;112.70;;;53.40;;
3249;SDS011;1637;42.020;23.992;2022-12-28T09:04:10;138.20;;;60.97;;
3249;SDS011;1637;42.020;23.992;2022-12-28T09:06:39;152.20;;;70.60;;
3249;SDS011;1637;42.020;23.992;2022-12-28T09:09:06;151.30;;;78.67;;
3249;SDS011;1637;42.020;23.992;2022-12-28T09:11:35;142.00;;;72.67;;
3249;SDS011;1637;42.020;23.992;2022-12-28T09:14:04;138.30;;;67.20;;
3249;SDS011;1637;42.020;23.992;2022-12-28T09:16:33;129.70;;;64.90;;
3249;SDS011;1637;42.020;23.992;2022-12-28T09:19:01;158.30;;;75.63;;
3249;SDS011;1637;42.020;23.992;2022-12-28T09:21:30;165.67;;;80.70;;
3249;SDS011;1637;42.020;23.992;2022-12-28T09:23:57;185.97;;;88.87;;
3249;SDS011;1637;42.020;23.992;2022-12-28T09:26:25;184.33;;;92.23;;
3249;SDS011;1637;42.020;23.992;2022-12-28T09:28:54;187.67;;;89.93;;
3249;SDS011;1637;42.020;23.992;2022-12-28T09:31:22;169.70;;;89.50;;
3249;SDS011;1637;42.020;23.992;2022-12-28T09:33:51;144.53;;;69.20;;
3249;SDS011;1637;42.020;23.992;2022-12-28T09:36:26;145.33;;;72.40;;
3249;SDS011;1637;42.020;23.992;2022-12-28T09:38:53;124.70;;;59.13;;
3249;SDS011;1637;42.020;23.992;2022-12-28T09:41:21;192.43;;;81.57;;
3249;SDS011;1637;42.020;23.992;2022-12-28T09:43:52;107.67;;;51.90;;
3249;SDS011;1637;42.020;23.992;2022-12-28T09:46:27;81.60;;;43.70;;
3249;SDS011;1637;42.020;23.992;2022-12-28T09:48:58;97.93;;;50.50;;
3249;SDS011;1637;42.020;23.992;2022-12-28T09:51:30;72.53;;;38.03;;
3249;SDS011;1637;42.020;23.992;2022-12-28T09:54:02;86.60;;;42.40;;
3249;SDS011;1637;42.020;23.992;2022-12-28T09:56:32;162.80;;;72.30;;
3249;SDS011;1637;42.020;23.992;2022-12-28T09:59:03;77.07;;;27.67;;
3249;SDS011;1637;42.020;23.992;2022-12-28T10:01:31;72.20;;;31.97;;
3249;SDS011;1637;42.020;23.992;2022-12-28T10:04:02;60.10;;;29.33;;
3249;SDS011;1637;42.020;23.992;2022-12-28T10:06:30;46.83;;;25.60;;
3249;SDS011;1637;42.020;23.992;2022-12-28T10:09:00;60.43;;;32.10;;
3249;SDS011;1637;42.020;23.992;2022-12-28T10:11:30;86.37;;;36.47;;
3249;SDS011;1637;42.020;23.992;2022-12-28T10:14:00;79.20;;;38.23;;
3249;SDS011;1637;42.020;23.992;2022-12-28T10:16:29;81.13;;;35.37;;
3249;SDS011;1637;42.020;23.992;2022-12-28T10:18:58;88.67;;;38.67;;
3249;SDS011;1637;42.020;23.992;2022-12-28T10:21:27;64.73;;;32.03;;
3249;SDS011;1637;42.020;23.992;2022-12-28T10:23:58;73.50;;;37.23;;
3249;SDS011;1637;42.020;23.992;2022-12-28T10:26:25;86.40;;;40.90;;
3249;SDS011;1637;42.020;23.992;2022-12-28T10:28:53;74.87;;;40.53;;
3249;SDS011;1637;42.020;23.992;2022-12-28T10:31:30;65.27;;;32.07;;
3249;SDS011;1637;42.020;23.992;2022-12-28T10:33:58;64.63;;;30.67;;
3249;SDS011;1637;42.020;23.992;2022-12-28T10:36:27;56.33;;;29.20;;
3249;SDS011;1637;42.020;23.992;2022-12-28T10:38:58;35.97;;;18.50;;
3249;SDS011;1637;42.020;23.992;2022-12-28T10:41:31;27.60;;;15.90;;
3249;SDS011;1637;42.020;23.992;2022-12-28T10:44:04;30.70;;;17.20;;
3249;SDS011;1637;42.020;23.992;2022-12-28T10:46:47;49.83;;;23.10;;
3249;SDS011;1637;42.020;23.992;2022-12-28T10:49:17;35.40;;;18.07;;
3249;SDS011;1637;42.020;23.992;2022-12-28T10:51:57;35.73;;;17.67;;
3249;SDS011;1637;42.020;23.992;2022-12-28T10:54:26;26.00;;;14.60;;
3249;SDS011;1637;42.020;23.992;2022-12-28T10:56:58;26.17;;;14.97;;
3249;SDS011;1637;42.020;23.992;2022-12-28T10:59:26;35.60;;;15.90;;
3249;SDS011;1637;42.020;23.992;2022-12-28T11:01:54;44.40;;;21.23;;
3249;SDS011;1637;42.020;23.992;2022-12-28T11:04:43;37.03;;;17.77;;
3249;SDS011;1637;42.020;23.992;2022-12-28T11:07:25;40.60;;;19.10;;
3249;SDS011;1637;42.020;23.992;2022-12-28T11:09:53;36.17;;;18.00;;
3249;SDS011;1637;42.020;23.992;2022-12-28T11:12:40;52.17;;;20.40;;
3249;SDS011;1637;42.020;23.992;2022-12-28T11:15:09;36.97;;;19.57;;
3249;SDS011;1637;42.020;23.992;2022-12-28T11:17:40;45.70;;;25.90;;
3249;SDS011;1637;42.020;23.992;2022-12-28T11:20:10;61.67;;;24.50;;
3249;SDS011;1637;42.020;23.992;2022-12-28T11:22:43;56.30;;;24.90;;
3249;SDS011;1637;42.020;23.992;2022-12-28T11:25:12;93.77;;;37.50;;
3249;SDS011;1637;42.020;23.992;2022-12-28T11:27:42;75.57;;;31.67;;
3249;SDS011;1637;42.020;23.992;2022-12-28T11:30:12;106.60;;;56.27;;
3249;SDS011;1637;42.020;23.992;2022-12-28T11:32:42;98.27;;;44.87;;
3249;SDS011;1637;42.020;23.992;2022-12-28T11:35:14;90.63;;;44.97;;
3249;SDS011;1637;42.020;23.992;2022-12-28T11:37:53;77.60;;;30.97;;
3249;SDS011;1637;42.020;23.992;2022-12-28T11:54:54;194.10;;;81.07;;
3249;SDS011;1637;42.020;23.992;2022-12-28T11:57:32;194.77;;;86.50;;
3249;SDS011;1637;42.020;23.992;2022-12-28T12:03:07;134.10;;;55.90;;
3249;SDS011;1637;42.020;23.992;2022-12-28T12:05:47;107.03;;;53.93;;
3249;SDS011;1637;42.020;23.992;2022-12-28T12:11:26;76.20;;;36.80;;
3249;SDS011;1637;42.020;23.992;2022-12-28T12:13:58;93.63;;;43.63;;
3249;SDS011;1637;42.020;23.992;2022-12-28T12:16:28;112.57;;;54.80;;
3249;SDS011;1637;42.020;23.992;2022-12-28T12:19:00;127.27;;;59.57;;
3249;SDS011;1637;42.020;23.992;2022-12-28T12:21:34;139.17;;;68.37;;
3249;SDS011;1637;42.020;23.992;2022-12-28T12:24:08;137.03;;;61.03;;
3249;SDS011;1637;42.020;23.992;2022-12-28T12:26:46;167.73;;;74.83;;
3249;SDS011;1637;42.020;23.992;2022-12-28T12:29:16;168.80;;;76.97;;
3249;SDS011;1637;42.020;23.992;2022-12-28T12:31:47;159.30;;;73.20;;
3249;SDS011;1637;42.020;23.992;2022-12-28T12:34:20;181.77;;;88.73;;
3249;SDS011;1637;42.020;23.992;2022-12-28T12:36:59;226.10;;;92.30;;
3249;SDS011;1637;42.020;23.992;2022-12-28T12:39:42;250.93;;;110.50;;
3249;SDS011;1637;42.020;23.992;2022-12-28T12:42:25;223.80;;;99.20;;
3249;SDS011;1637;42.020;23.992;2022-12-28T12:45:01;178.27;;;91.40;;
3249;SDS011;1637;42.020;23.992;2022-12-28T12:47:46;221.77;;;103.13;;
3249;SDS011;1637;42.020;23.992;2022-12-28T12:53:32;220.87;;;104.97;;
3249;SDS011;1637;42.020;23.992;2022-12-28T12:56:12;286.63;;;120.80;;
3249;SDS011;1637;42.020;23.992;2022-12-28T12:58:57;374.10;;;152.80;;
3249;SDS011;1637;42.020;23.992;2022-12-28T13:01:36;406.87;;;162.33;;
3249;SDS011;1637;42.020;23.992;2022-12-28T13:04:13;355.30;;;148.20;;
3249;SDS011;1637;42.020;23.992;2022-12-28T13:06:45;285.23;;;133.90;;
3249;SDS011;1637;42.020;23.992;2022-12-28T13:09:13;211.07;;;104.20;;
3249;SDS011;1637;42.020;23.992;2022-12-28T13:11:42;222.10;;;108.23;;
3249;SDS011;1637;42.020;23.992;2022-12-28T13:14:13;246.27;;;115.17;;
3249;SDS011;1637;42.020;23.992;2022-12-28T13:16:45;242.20;;;114.60;;
3249;SDS011;1637;42.020;23.992;2022-12-28T13:19:15;253.83;;;112.57;;
3249;SDS011;1637;42.020;23.992;2022-12-28T13:21:46;247.13;;;115.40;;
3249;SDS011;1637;42.020;23.992;2022-12-28T13:24:18;203.47;;;97.23;;
3249;SDS011;1637;42.020;23.992;2022-12-28T13:26:46;256.23;;;116.60;;
3249;SDS011;1637;42.020;23.992;2022-12-28T13:29:16;253.13;;;118.33;;
3249;SDS011;1637;42.020;23.992;2022-12-28T13:31:44;299.50;;;132.43;;
3249;SDS011;1637;42.020;23.992;2022-12-28T13:34:15;326.00;;;136.60;;
3249;SDS011;1637;42.020;23.992;2022-12-28T13:36:46;352.50;;;172.47;;
3249;SDS011;1637;42.020;23.992;2022-12-28T13:39:14;408.50;;;199.00;;
3249;SDS011;1637;42.020;23.992;2022-12-28T13:41:45;413.77;;;185.97;;
3249;SDS011;1637;42.020;23.992;2022-12-28T13:44:20;460.73;;;217.13;;
3249;SDS011;1637;42.020;23.992;2022-12-28T13:46:52;492.43;;;233.30;;
3249;SDS011;1637;42.020;23.992;2022-12-28T13:49:24;344.87;;;153.93;;
3249;SDS011;1637;42.020;23.992;2022-12-28T13:51:53;324.47;;;151.37;;
3249;SDS011;1637;42.020;23.992;2022-12-28T13:54:20;299.33;;;142.77;;
3249;SDS011;1637;42.020;23.992;2022-12-28T13:56:49;331.33;;;143.80;;
3249;SDS011;1637;42.020;23.992;2022-12-28T13:59:17;329.03;;;152.17;;
3249;SDS011;1637;42.020;23.992;2022-12-28T14:01:47;336.53;;;148.60;;
3249;SDS011;1637;42.020;23.992;2022-12-28T14:04:16;295.63;;;141.53;;
3249;SDS011;1637;42.020;23.992;2022-12-28T14:06:45;401.90;;;190.30;;
3249;SDS011;1637;42.020;23.992;2022-12-28T14:09:12;282.80;;;132.57;;
3249;SDS011;1637;42.020;23.992;2022-12-28T14:11:41;211.97;;;105.83;;
3249;SDS011;1637;42.020;23.992;2022-12-28T14:14:10;218.90;;;103.50;;
3249;SDS011;1637;42.020;23.992;2022-12-28T14:16:39;256.63;;;116.70;;
3249;SDS011;1637;42.020;23.992;2022-12-28T14:19:07;245.33;;;115.90;;
3249;SDS011;1637;42.020;23.992;2022-12-28T14:21:35;254.57;;;121.60;;
3249;SDS011;1637;42.020;23.992;2022-12-28T14:24:05;281.53;;;132.20;;
3249;SDS011;1637;42.020;23.992;2022-12-28T14:26:33;284.00;;;140.57;;
3249;SDS011;1637;42.020;23.992;2022-12-28T14:29:07;321.90;;;156.07;;
3249;SDS011;1637;42.020;23.992;2022-12-28T14:31:36;361.90;;;158.20;;
3249;SDS011;1637;42.020;23.992;2022-12-28T14:34:05;330.93;;;146.17;;
3249;SDS011;1637;42.020;23.992;2022-12-28T14:36:34;326.30;;;143.20;;
3249;SDS011;1637;42.020;23.992;2022-12-28T14:39:04;298.83;;;136.97;;
3249;SDS011;1637;42.020;23.992;2022-12-28T14:41:32;280.00;;;132.93;;
3249;SDS011;1637;42.020;23.992;2022-12-28T14:44:03;244.30;;;115.17;;
3249;SDS011;1637;42.020;23.992;2022-12-28T14:46:34;293.70;;;134.47;;
3249;SDS011;1637;42.020;23.992;2022-12-28T14:55:03;260.77;;;116.60;;
3249;SDS011;1637;42.020;23.992;2022-12-28T14:57:46;299.30;;;131.07;;
3249;SDS011;1637;42.020;23.992;2022-12-28T15:00:23;299.20;;;133.90;;
3249;SDS011;1637;42.020;23.992;2022-12-28T15:02:52;295.40;;;127.77;;
3249;SDS011;1637;42.020;23.992;2022-12-28T15:05:38;324.90;;;135.87;;
3249;SDS011;1637;42.020;23.992;2022-12-28T15:08:07;245.17;;;111.30;;
3249;SDS011;1637;42.020;23.992;2022-12-28T15:10:35;269.43;;;117.27;;
3249;SDS011;1637;42.020;23.992;2022-12-28T15:13:06;282.27;;;118.63;;
3249;SDS011;1637;42.020;23.992;2022-12-28T15:15:33;245.03;;;108.47;;
3249;SDS011;1637;42.020;23.992;2022-12-28T15:17:59;244.93;;;111.37;;